createdAt,value
2019-03-22T00:00:14.819Z,44.3
2019-03-22T00:01:27.012Z,44.3
2019-03-22T00:02:39.212Z,44.3
2019-03-22T00:03:51.396Z,44.2
2019-03-22T00:05:03.595Z,44.3
2019-03-22T00:06:15.786Z,44.3
2019-03-22T00:07:27.984Z,44.3
2019-03-22T00:08:40.178Z,44.4
2019-03-22T00:09:52.373Z,44.3
2019-03-22T00:11:04.566Z,44.4
2019-03-22T00:12:16.000Z,44.3
2019-03-22T00:13:28.094Z,44.3
2019-03-22T00:14:41.148Z,44.4
2019-03-22T00:15:53.334Z,44.3
2019-03-22T00:17:05.531Z,44.3
2019-03-22T00:18:17.728Z,44.3
2019-03-22T00:19:29.924Z,44.3
2019-03-22T00:20:42.115Z,44.4
2019-03-22T00:21:54.323Z,44.3
2019-03-22T00:23:06.501Z,44.3
2019-03-22T00:24:18.000Z,44.3
2019-03-22T00:25:30.894Z,44.2
2019-03-22T00:26:43.000Z,44.3
2019-03-22T00:27:55.276Z,44.2
2019-03-22T00:29:07.047Z,44.3
2019-03-22T00:30:19.668Z,44.3
2019-03-22T00:31:31.859Z,44.3
2019-03-22T00:32:44.052Z,44.3
2019-03-22T00:33:56.251Z,44.3
2019-03-22T00:35:08.437Z,44.3
2019-03-22T00:36:20.065Z,44.3
2019-03-22T00:37:32.832Z,44.3
2019-03-22T00:38:45.025Z,44.3
2019-03-22T00:39:57.021Z,44.3
2019-03-22T00:42:21.605Z,44.3
2019-03-22T00:43:33.795Z,44.3
2019-03-22T00:44:45.995Z,44.2
2019-03-22T00:45:58.191Z,44.4
2019-03-22T00:47:10.375Z,44.4
2019-03-22T00:48:22.596Z,44.3
2019-03-22T00:49:34.767Z,44.3
2019-03-22T00:50:46.964Z,44.2
2019-03-22T00:51:59.015Z,44.3
2019-03-22T00:54:23.054Z,44.2
2019-03-22T00:55:35.744Z,44.2
2019-03-22T00:56:47.093Z,44.3
2019-03-22T00:58:00.125Z,44.3
2019-03-22T00:59:12.331Z,44.2
2019-03-22T01:00:24.515Z,44.3
2019-03-22T01:01:36.717Z,44.3
2019-03-22T01:02:48.899Z,44.3
2019-03-22T01:04:01.111Z,44.2
2019-03-22T01:05:13.290Z,44.3
2019-03-22T01:06:25.048Z,44.4
2019-03-22T01:07:37.672Z,44.3
2019-03-22T01:08:49.865Z,44.4
2019-03-22T01:10:02.058Z,44.3
2019-03-22T01:11:14.255Z,44.4
2019-03-22T01:12:26.456Z,44.3
2019-03-22T01:13:38.643Z,44.2
2019-03-22T01:14:50.839Z,44.3
2019-03-22T01:16:03.034Z,44.2
2019-03-22T01:18:27.421Z,44.2
2019-03-22T01:19:39.606Z,44.2
2019-03-22T01:20:51.810Z,44.2
2019-03-22T01:22:04.007Z,44.2
2019-03-22T01:23:16.201Z,44.3
2019-03-22T01:24:28.396Z,44.2
2019-03-22T01:25:40.577Z,44.2
2019-03-22T01:26:52.775Z,44.2
2019-03-22T01:28:04.968Z,44.3
2019-03-22T01:29:17.157Z,44.3
2019-03-22T01:30:29.360Z,44.3
2019-03-22T01:31:41.547Z,44.3
2019-03-22T01:32:53.787Z,44.2
2019-03-22T01:34:05.937Z,44.2
2019-03-22T01:35:18.127Z,44.2
2019-03-22T01:36:30.411Z,44.2
2019-03-22T01:37:42.516Z,44.2
2019-03-22T01:38:54.713Z,44.2
2019-03-22T01:40:06.960Z,44.2
2019-03-22T01:41:19.104Z,44.2
2019-03-22T01:42:31.296Z,44.3
2019-03-22T01:43:43.484Z,44.2
2019-03-22T01:44:55.068Z,44.3
2019-03-22T01:46:07.875Z,44.3
2019-03-22T01:47:20.083Z,44.3
2019-03-22T01:48:32.026Z,44.2
2019-03-22T01:49:44.456Z,44.2
2019-03-22T01:50:56.652Z,44.2
2019-03-22T01:52:08.849Z,44.3
2019-03-22T01:53:21.041Z,44.2
2019-03-22T01:54:33.236Z,44.2
2019-03-22T01:55:45.423Z,44.1
2019-03-22T01:56:57.619Z,44.2
2019-03-22T01:58:09.821Z,44.2
2019-03-22T01:59:22.006Z,44.2
2019-03-22T02:00:34.204Z,44.2
2019-03-22T02:01:46.399Z,44.2
2019-03-22T02:02:58.588Z,44.3
2019-03-22T02:04:10.785Z,44.2
2019-03-22T02:06:35.173Z,44.2
2019-03-22T02:07:47.362Z,44.2
2019-03-22T02:08:59.560Z,44.2
2019-03-22T02:10:11.752Z,44.2
2019-03-22T02:11:23.950Z,44.3
2019-03-22T02:12:36.142Z,44.3
2019-03-22T02:13:48.374Z,44.3
2019-03-22T02:15:00.528Z,44.2
2019-03-22T02:16:12.719Z,44.2
2019-03-22T02:17:24.918Z,44.3
2019-03-22T02:18:37.111Z,44.3
2019-03-22T02:19:49.297Z,44.2
2019-03-22T02:21:01.495Z,44.2
2019-03-22T02:22:13.685Z,44.2
2019-03-22T02:23:25.879Z,44.3
2019-03-22T02:24:38.097Z,44.2
2019-03-22T02:25:50.270Z,44.2
2019-03-22T02:27:02.465Z,44.2
2019-03-22T02:28:14.653Z,44.1
2019-03-22T02:29:26.854Z,44.2
2019-03-22T02:31:51.242Z,44.2
2019-03-22T02:33:03.437Z,44.2
2019-03-22T02:34:15.626Z,44.2
2019-03-22T02:35:27.082Z,44.2
2019-03-22T02:36:40.026Z,44.2
2019-03-22T02:37:52.207Z,44.3
2019-03-22T02:39:04.040Z,44.3
2019-03-22T02:40:16.060Z,44.2
2019-03-22T02:41:28.793Z,44.4
2019-03-22T02:42:40.986Z,44.2
2019-03-22T02:43:53.179Z,44.2
2019-03-22T02:45:05.369Z,44.2
2019-03-22T02:46:17.562Z,44.2
2019-03-22T02:47:29.757Z,44.2
2019-03-22T02:48:41.952Z,44.3
2019-03-22T02:49:54.148Z,44.2
2019-03-22T02:51:06.343Z,44.2
2019-03-22T02:54:42.928Z,44.2
2019-03-22T02:55:55.114Z,44.2
2019-03-22T02:57:07.303Z,44.2
2019-03-22T02:58:19.505Z,44.3
2019-03-22T02:59:31.694Z,44.3
2019-03-22T03:00:43.896Z,44.3
2019-03-22T03:01:56.083Z,44.3
2019-03-22T03:03:08.279Z,44.2
2019-03-22T03:04:20.484Z,44.2
2019-03-22T03:05:32.669Z,44.2
2019-03-22T03:06:45.453Z,44.2
2019-03-22T03:07:57.055Z,44.3
2019-03-22T03:09:09.024Z,44.2
2019-03-22T03:10:21.044Z,44.3
2019-03-22T03:11:33.630Z,44.2
2019-03-22T03:12:45.832Z,44.2
2019-03-22T03:13:58.019Z,44.2
2019-03-22T03:15:10.221Z,44.2
2019-03-22T03:16:22.412Z,44.3
2019-03-22T03:17:34.615Z,44.2
2019-03-22T03:18:46.080Z,44.2
2019-03-22T03:19:58.988Z,44.1
2019-03-22T03:21:11.187Z,44.2
2019-03-22T03:22:23.381Z,44.2
2019-03-22T03:23:35.576Z,44.3
2019-03-22T03:24:47.763Z,44.2
2019-03-22T03:25:59.958Z,44.3
2019-03-22T03:27:12.158Z,44.3
2019-03-22T03:28:24.354Z,44.3
2019-03-22T03:29:36.541Z,44.2
2019-03-22T03:30:48.739Z,44.2
2019-03-22T03:32:00.930Z,44.2
2019-03-22T03:33:13.124Z,44.2
2019-03-22T03:34:25.314Z,44.3
2019-03-22T03:35:37.514Z,44.2
2019-03-22T03:36:49.701Z,44.2
2019-03-22T03:38:01.962Z,44.2
2019-03-22T03:39:14.093Z,44.3
2019-03-22T03:40:26.284Z,44.2
2019-03-22T03:42:50.681Z,44.2
2019-03-22T03:44:02.867Z,44.3
2019-03-22T03:45:15.061Z,44.2
2019-03-22T03:46:27.255Z,44.2
2019-03-22T03:47:39.452Z,44.3
2019-03-22T03:48:51.646Z,44.2
2019-03-22T03:50:03.846Z,44.2
2019-03-22T03:51:16.033Z,44.2
2019-03-22T03:52:28.225Z,44.2
2019-03-22T03:53:40.423Z,44.1
2019-03-22T03:54:52.619Z,44.2
2019-03-22T03:56:04.810Z,44.3
2019-03-22T03:57:18.062Z,44.2
2019-03-22T03:58:29.191Z,44.2
2019-03-22T03:59:41.394Z,44.2
2019-03-22T04:00:53.582Z,44.2
2019-03-22T04:02:05.782Z,44.3
2019-03-22T04:03:17.097Z,44.3
2019-03-22T04:04:30.191Z,44.2
2019-03-22T04:05:42.361Z,44.3
2019-03-22T04:06:54.553Z,44.3
2019-03-22T04:08:06.745Z,44.3
2019-03-22T04:09:18.945Z,44.2
2019-03-22T04:10:31.133Z,44.2
2019-03-22T04:11:43.329Z,44.2
2019-03-22T04:12:55.516Z,44.2
2019-03-22T04:14:07.940Z,44.2
2019-03-22T04:15:19.913Z,44.3
2019-03-22T04:16:32.098Z,44.2
2019-03-22T04:17:44.295Z,44.2
2019-03-22T04:18:56.493Z,44.3
2019-03-22T04:20:08.685Z,44.2
2019-03-22T04:21:20.883Z,44.2
2019-03-22T04:22:33.069Z,44.2
2019-03-22T04:23:45.026Z,44.2
2019-03-22T04:24:57.460Z,44.2
2019-03-22T04:26:09.665Z,44.2
2019-03-22T04:27:21.871Z,44.3
2019-03-22T04:28:34.051Z,44.2
2019-03-22T04:29:46.238Z,44.2
2019-03-22T04:30:58.428Z,44.2
2019-03-22T04:32:10.619Z,44.2
2019-03-22T04:33:22.008Z,44.2
2019-03-22T04:34:35.006Z,44.2
2019-03-22T04:35:47.199Z,44.2
2019-03-22T04:36:59.412Z,44.3
2019-03-22T04:38:11.584Z,44.3
2019-03-22T04:39:23.793Z,44.2
2019-03-22T04:40:35.996Z,44.2
2019-03-22T04:41:48.017Z,44.2
2019-03-22T04:43:00.364Z,44.3
2019-03-22T04:44:12.695Z,44.2
2019-03-22T04:45:24.878Z,44.1
2019-03-22T04:46:37.078Z,44.2
2019-03-22T04:47:49.268Z,44.2
2019-03-22T04:49:01.460Z,44.2
2019-03-22T04:50:13.655Z,44.1
2019-03-22T04:51:25.849Z,44.2
2019-03-22T04:52:38.046Z,44.2
2019-03-22T04:53:50.244Z,44.2
2019-03-22T04:55:02.043Z,44.2
2019-03-22T04:56:14.620Z,44.1
2019-03-22T04:57:26.081Z,44.1
2019-03-22T04:58:39.014Z,44.2
2019-03-22T04:59:51.204Z,44.2
2019-03-22T05:01:03.439Z,44.1
2019-03-22T05:02:15.059Z,44.1
2019-03-22T05:03:27.788Z,44.1
2019-03-22T05:04:39.980Z,44.2
2019-03-22T05:05:52.170Z,44.2
2019-03-22T05:07:04.366Z,44.2
2019-03-22T05:08:16.005Z,44.1
2019-03-22T05:09:28.758Z,44.2
2019-03-22T05:10:40.976Z,44.1
2019-03-22T05:11:53.145Z,44.2
2019-03-22T05:13:05.000Z,44.2
2019-03-22T05:14:17.528Z,44.2
2019-03-22T05:15:29.730Z,44.2
2019-03-22T05:16:41.924Z,44.2
2019-03-22T05:17:54.116Z,44.2
2019-03-22T05:19:06.310Z,44.2
2019-03-22T05:20:18.498Z,44.2
2019-03-22T05:21:30.701Z,44.2
2019-03-22T05:22:42.955Z,44.2
2019-03-22T05:23:55.084Z,44.1
2019-03-22T05:25:07.027Z,44.2
2019-03-22T05:26:19.466Z,44.2
2019-03-22T05:27:31.661Z,44.2
2019-03-22T05:28:43.859Z,44.1
2019-03-22T05:29:56.005Z,44.2
2019-03-22T05:31:08.249Z,44.2
2019-03-22T05:32:20.438Z,44.3
2019-03-22T05:33:32.063Z,44.2
2019-03-22T05:34:44.825Z,44.1
2019-03-22T05:35:57.017Z,44.1
2019-03-22T05:37:09.212Z,44.1
2019-03-22T05:38:21.411Z,44.1
2019-03-22T05:39:33.599Z,44.1
2019-03-22T05:40:45.799Z,44.1
2019-03-22T05:41:58.000Z,44.1
2019-03-22T05:43:10.187Z,44.1
2019-03-22T05:44:22.376Z,44.1
2019-03-22T05:45:34.582Z,44.1
2019-03-22T05:46:46.760Z,44.1
2019-03-22T05:47:58.958Z,44.1
2019-03-22T05:49:11.156Z,44.1
2019-03-22T05:50:23.341Z,44
2019-03-22T05:51:35.537Z,44
2019-03-22T05:52:47.745Z,44
2019-03-22T05:53:59.931Z,44
2019-03-22T05:55:12.119Z,44
2019-03-22T05:56:24.317Z,44
2019-03-22T05:57:36.513Z,43.9
2019-03-22T05:58:48.702Z,44
2019-03-22T06:00:00.909Z,43.9
2019-03-22T06:01:13.090Z,43.9
2019-03-22T06:03:37.470Z,43.9
2019-03-22T06:04:49.067Z,43.9
2019-03-22T06:06:01.867Z,44
2019-03-22T06:07:14.052Z,43.9
2019-03-22T06:08:26.248Z,43.9
2019-03-22T06:09:38.443Z,43.8
2019-03-22T06:10:50.643Z,43.9
2019-03-22T06:12:02.837Z,43.8
2019-03-22T06:13:15.028Z,43.9
2019-03-22T06:14:27.228Z,43.9
2019-03-22T06:15:39.417Z,43.9
2019-03-22T06:16:51.061Z,43.9
2019-03-22T06:18:03.813Z,43.9
2019-03-22T06:19:16.002Z,43.9
2019-03-22T06:20:28.202Z,43.9
2019-03-22T06:21:40.389Z,43.9
2019-03-22T06:22:52.592Z,43.9
2019-03-22T06:24:04.786Z,43.9
2019-03-22T06:25:16.978Z,43.9
2019-03-22T06:26:29.173Z,43.8
2019-03-22T06:27:41.370Z,43.8
2019-03-22T06:28:53.056Z,43.8
2019-03-22T06:30:05.758Z,43.9
2019-03-22T06:31:17.957Z,43.8
2019-03-22T06:32:30.149Z,43.8
2019-03-22T06:33:42.347Z,43.9
2019-03-22T06:34:54.528Z,44
2019-03-22T06:36:06.737Z,43.9
2019-03-22T06:37:18.926Z,43.8
2019-03-22T06:38:31.123Z,43.9
2019-03-22T06:39:43.319Z,43.8
2019-03-22T06:40:55.064Z,43.8
2019-03-22T06:43:19.909Z,43.8
2019-03-22T06:44:32.105Z,43.7
2019-03-22T06:45:44.288Z,44
2019-03-22T06:46:56.488Z,43.9
2019-03-22T06:48:08.685Z,43.9
2019-03-22T06:49:20.875Z,43.8
2019-03-22T06:50:33.010Z,43.9
2019-03-22T06:51:45.027Z,43.9
2019-03-22T06:52:57.047Z,43.9
2019-03-22T06:54:09.665Z,44
2019-03-22T06:55:21.849Z,44.1
2019-03-22T06:56:34.048Z,44.2
2019-03-22T06:57:46.289Z,44.2
2019-03-22T06:58:58.447Z,44.3
2019-03-22T07:00:10.632Z,44.4
2019-03-22T07:01:22.835Z,44.3
2019-03-22T07:02:35.028Z,44.3
2019-03-22T07:03:47.247Z,44.4
2019-03-22T07:04:59.424Z,44.4
2019-03-22T07:06:11.611Z,44.5
2019-03-22T07:07:23.813Z,44.4
2019-03-22T07:08:36.018Z,44.4
2019-03-22T07:09:48.022Z,44.5
2019-03-22T07:11:00.396Z,44.5
2019-03-22T07:12:12.584Z,44.5
2019-03-22T07:13:24.784Z,44.4
2019-03-22T07:14:36.974Z,44.4
2019-03-22T07:15:49.017Z,44.5
2019-03-22T07:17:01.370Z,44.5
2019-03-22T07:19:25.757Z,44.5
2019-03-22T07:20:37.960Z,44.6
2019-03-22T07:21:50.018Z,44.6
2019-03-22T07:23:02.355Z,44.5
2019-03-22T07:24:14.550Z,44.5
2019-03-22T07:25:26.738Z,44.5
2019-03-22T07:26:38.932Z,44.4
2019-03-22T07:27:51.141Z,44.4
2019-03-22T07:29:03.328Z,44.5
2019-03-22T07:30:15.521Z,44.4
2019-03-22T07:31:27.741Z,44.4
2019-03-22T07:32:39.914Z,44.3
2019-03-22T07:33:52.125Z,44.4
2019-03-22T07:35:04.297Z,44.3
2019-03-22T07:36:16.496Z,44.3
2019-03-22T07:37:28.690Z,44.3
2019-03-22T07:38:40.886Z,44.4
2019-03-22T07:39:53.079Z,44.4
2019-03-22T07:41:05.284Z,44.3
2019-03-22T07:42:17.472Z,44.3
2019-03-22T07:43:29.673Z,44.3
2019-03-22T07:44:41.859Z,44.3
2019-03-22T07:45:54.061Z,44.3
2019-03-22T07:47:06.253Z,44.5
2019-03-22T07:48:19.459Z,44.5
2019-03-22T07:49:30.639Z,44.5
2019-03-22T07:50:42.838Z,44.4
2019-03-22T07:51:55.037Z,44.4
2019-03-22T07:53:07.244Z,44.4
2019-03-22T07:54:19.424Z,44.5
2019-03-22T07:55:31.623Z,44.5
2019-03-22T07:56:43.876Z,44.4
2019-03-22T07:57:56.027Z,44.7
2019-03-22T07:59:08.205Z,44.5
2019-03-22T08:00:20.421Z,44.5
2019-03-22T08:01:32.604Z,44.6
2019-03-22T08:02:44.798Z,44.7
2019-03-22T08:03:56.985Z,44.7
2019-03-22T08:07:33.575Z,44.7
2019-03-22T08:08:45.769Z,44.8
2019-03-22T08:09:57.967Z,44.9
2019-03-22T08:11:10.160Z,44.9
2019-03-22T08:12:22.359Z,44.8
2019-03-22T08:13:34.546Z,44.8
2019-03-22T08:14:46.742Z,44.8
2019-03-22T08:15:58.937Z,44.8
2019-03-22T08:17:11.138Z,44.8
2019-03-22T08:18:23.328Z,44.8
2019-03-22T08:19:35.547Z,44.7
2019-03-22T08:20:47.724Z,44.8
2019-03-22T08:21:59.910Z,44.8
2019-03-22T08:23:12.117Z,44.9
2019-03-22T08:24:24.031Z,44.8
2019-03-22T08:25:36.497Z,44.9
2019-03-22T08:26:48.700Z,44.9
2019-03-22T08:28:00.889Z,44.9
2019-03-22T08:29:13.095Z,44.9
2019-03-22T08:30:25.278Z,44.9
2019-03-22T08:31:37.480Z,45
2019-03-22T08:32:49.675Z,44.9
2019-03-22T08:34:01.873Z,44.9
2019-03-22T08:35:14.069Z,45
2019-03-22T08:36:26.264Z,45.2
2019-03-22T08:37:38.468Z,45.2
2019-03-22T08:38:50.645Z,45.3
2019-03-22T08:40:02.845Z,45.2
2019-03-22T08:41:15.043Z,45.4
2019-03-22T08:42:27.238Z,45.5
2019-03-22T08:43:39.430Z,45.5
2019-03-22T08:44:51.627Z,45.6
2019-03-22T08:46:03.841Z,45.6
2019-03-22T08:47:16.015Z,45.4
2019-03-22T08:48:28.209Z,45.5
2019-03-22T08:49:40.407Z,45.7
2019-03-22T08:50:52.609Z,45.7
2019-03-22T08:52:04.800Z,45.7
2019-03-22T08:53:16.988Z,45.7
2019-03-22T08:54:29.185Z,45.6
2019-03-22T08:55:41.386Z,45.7
2019-03-22T08:56:53.588Z,45.6
2019-03-22T08:58:05.778Z,45.7
2019-03-22T08:59:17.966Z,45.5
2019-03-22T09:00:30.172Z,45.5
2019-03-22T09:01:42.387Z,45.5
2019-03-22T09:04:06.752Z,45.5
2019-03-22T09:05:18.950Z,45.5
2019-03-22T09:06:31.001Z,45.6
2019-03-22T09:07:43.391Z,45.5
2019-03-22T09:08:55.529Z,45.5
2019-03-22T09:10:07.728Z,45.5
2019-03-22T09:11:19.925Z,45.5
2019-03-22T09:12:32.117Z,45.4
2019-03-22T09:13:44.354Z,45.4
2019-03-22T09:14:56.512Z,45.3
2019-03-22T09:16:08.830Z,45.3
2019-03-22T09:17:20.894Z,45.5
2019-03-22T09:18:33.091Z,45.7
2019-03-22T09:19:45.294Z,45.5
2019-03-22T09:20:57.481Z,45.5
2019-03-22T09:22:09.680Z,45.4
2019-03-22T09:23:21.008Z,45.3
2019-03-22T09:24:34.068Z,45.4
2019-03-22T09:25:46.270Z,45.6
2019-03-22T09:26:58.045Z,45.6
2019-03-22T09:28:10.664Z,45.7
2019-03-22T09:29:22.855Z,45.5
2019-03-22T09:30:35.045Z,45.5
2019-03-22T09:31:47.251Z,45.7
2019-03-22T09:32:59.441Z,45.8
2019-03-22T09:34:11.631Z,45.9
2019-03-22T09:35:23.827Z,45.9
2019-03-22T09:36:36.021Z,46.1
2019-03-22T09:37:48.271Z,46
2019-03-22T09:39:00.415Z,45.9
2019-03-22T09:40:12.609Z,45.7
2019-03-22T09:41:24.804Z,45.8
2019-03-22T09:42:37.014Z,45.9
2019-03-22T09:43:49.194Z,45.9
2019-03-22T09:45:01.394Z,45.9
2019-03-22T09:46:13.592Z,45.8
2019-03-22T09:47:25.788Z,45.9
2019-03-22T09:48:37.972Z,45.9
2019-03-22T09:49:50.017Z,45.9
2019-03-22T09:51:02.373Z,45.9
2019-03-22T09:52:14.567Z,45.9
2019-03-22T09:53:26.753Z,45.8
2019-03-22T09:54:38.960Z,45.8
2019-03-22T09:57:03.349Z,45.8
2019-03-22T09:58:15.539Z,45.8
2019-03-22T09:59:27.740Z,45.8
2019-03-22T10:00:39.935Z,45.8
2019-03-22T10:01:52.131Z,45.8
2019-03-22T10:03:04.325Z,45.8
2019-03-22T10:04:16.521Z,45.8
2019-03-22T10:05:28.712Z,45.8
2019-03-22T10:06:40.091Z,45.8
2019-03-22T10:07:53.103Z,45.8
2019-03-22T10:09:05.293Z,45.8
2019-03-22T10:10:17.519Z,45.8
2019-03-22T10:11:29.692Z,45.7
2019-03-22T10:12:41.088Z,45.7
2019-03-22T10:13:54.111Z,45.7
2019-03-22T10:15:06.272Z,45.7
2019-03-22T10:16:18.465Z,45.7
2019-03-22T10:17:30.667Z,45.8
2019-03-22T10:18:42.866Z,45.7
2019-03-22T10:19:55.060Z,45.7
2019-03-22T10:21:07.253Z,45.7
2019-03-22T10:22:19.452Z,45.7
2019-03-22T10:23:31.686Z,45.7
2019-03-22T10:24:43.845Z,45.7
2019-03-22T10:25:56.026Z,45.7
2019-03-22T10:27:08.022Z,45.7
2019-03-22T10:29:32.613Z,45.7
2019-03-22T10:30:44.816Z,45.7
2019-03-22T10:31:57.000Z,45.7
2019-03-22T10:33:09.208Z,45.6
2019-03-22T10:34:21.417Z,45.6
2019-03-22T10:35:33.590Z,45.7
2019-03-22T10:36:46.524Z,45.7
2019-03-22T10:37:57.984Z,45.6
2019-03-22T10:39:10.180Z,45.6
2019-03-22T10:40:22.374Z,45.6
2019-03-22T10:41:34.577Z,45.6
2019-03-22T10:42:46.076Z,45.6
2019-03-22T10:43:58.961Z,45.6
2019-03-22T10:45:11.154Z,45.6
2019-03-22T10:46:23.356Z,45.6
2019-03-22T10:47:35.554Z,45.6
2019-03-22T10:48:47.754Z,45.6
2019-03-22T10:49:59.937Z,45.6
2019-03-22T10:51:12.140Z,45.5
2019-03-22T10:52:24.346Z,45.6
2019-03-22T10:53:36.527Z,45.5
2019-03-22T10:54:48.723Z,45.6
2019-03-22T10:56:00.916Z,45.6
2019-03-22T10:57:13.115Z,45.5
2019-03-22T10:58:25.317Z,45.5
2019-03-22T10:59:37.511Z,45.5
2019-03-22T11:00:49.700Z,45.5
2019-03-22T11:02:01.902Z,45.5
2019-03-22T11:03:14.095Z,45.5
2019-03-22T11:04:26.028Z,45.5
2019-03-22T11:05:38.482Z,45.5
2019-03-22T11:06:50.721Z,45.5
2019-03-22T11:08:02.877Z,45.5
2019-03-22T11:09:15.072Z,45.5
2019-03-22T11:10:27.271Z,45.5
2019-03-22T11:11:39.473Z,45.5
2019-03-22T11:12:51.065Z,45.5
2019-03-22T11:14:03.851Z,45.4
2019-03-22T11:15:16.005Z,45.4
2019-03-22T11:16:28.024Z,45.4
2019-03-22T11:17:40.434Z,45.4
2019-03-22T11:20:04.833Z,45.4
2019-03-22T11:21:17.107Z,45.4
2019-03-22T11:22:29.219Z,45.4
2019-03-22T11:23:41.407Z,45.4
2019-03-22T11:24:53.061Z,45.4
2019-03-22T11:26:05.805Z,45.4
2019-03-22T11:27:18.003Z,45.4
2019-03-22T11:28:30.193Z,45.5
2019-03-22T11:29:42.384Z,45.5
2019-03-22T11:30:54.586Z,45.4
2019-03-22T11:32:06.779Z,45.4
2019-03-22T11:33:19.007Z,45.4
2019-03-22T11:34:31.201Z,45.4
2019-03-22T11:35:43.365Z,45.4
2019-03-22T11:36:55.590Z,45.4
2019-03-22T11:38:07.755Z,45.4
2019-03-22T11:39:19.952Z,45.4
2019-03-22T11:40:32.153Z,45.4
2019-03-22T11:41:44.351Z,45.4
2019-03-22T11:42:56.546Z,45.4
2019-03-22T11:44:08.738Z,45.4
2019-03-22T11:45:20.929Z,45.4
2019-03-22T11:46:33.146Z,45.4
2019-03-22T11:47:45.327Z,45.3
2019-03-22T11:48:57.520Z,45.3
2019-03-22T11:50:09.806Z,45.3
2019-03-22T11:51:21.908Z,45.3
2019-03-22T11:52:34.104Z,45.3
2019-03-22T11:53:46.311Z,45.3
2019-03-22T11:54:58.498Z,45.3
2019-03-22T11:56:10.689Z,45.3
2019-03-22T11:57:22.890Z,45.3
2019-03-22T11:58:35.081Z,45.1
2019-03-22T11:59:47.283Z,45.1
2019-03-22T12:00:59.479Z,45.1
2019-03-22T12:02:11.670Z,45.1
2019-03-22T12:03:23.864Z,45.1
2019-03-22T12:04:36.005Z,45.1
2019-03-22T12:05:48.256Z,45.1
2019-03-22T12:07:00.454Z,45.1
2019-03-22T12:08:12.638Z,45.1
2019-03-22T12:09:24.833Z,45.1
2019-03-22T12:10:37.039Z,45.1
2019-03-22T12:11:49.230Z,45
2019-03-22T12:13:01.430Z,45
2019-03-22T12:14:13.617Z,45
2019-03-22T12:15:25.827Z,45
2019-03-22T12:16:38.014Z,45
2019-03-22T12:17:50.228Z,45
2019-03-22T12:19:02.403Z,45
2019-03-22T12:20:14.601Z,45
2019-03-22T12:21:26.790Z,45
2019-03-22T12:22:38.987Z,45
2019-03-22T12:23:51.189Z,45
2019-03-22T12:25:03.376Z,45
2019-03-22T12:26:15.569Z,45
2019-03-22T12:27:27.808Z,45
2019-03-22T12:28:39.962Z,45
2019-03-22T12:29:52.153Z,45
2019-03-22T12:31:04.360Z,45
2019-03-22T12:32:16.055Z,45
2019-03-22T12:33:28.757Z,45
2019-03-22T12:34:40.937Z,45
2019-03-22T12:35:53.132Z,45
2019-03-22T12:37:05.329Z,45
2019-03-22T12:38:17.531Z,45
2019-03-22T12:39:29.723Z,45
2019-03-22T12:40:41.914Z,45
2019-03-22T12:41:54.010Z,45
2019-03-22T12:43:06.312Z,45
2019-03-22T12:44:18.505Z,45
2019-03-22T12:45:30.706Z,45
2019-03-22T12:46:42.897Z,45
2019-03-22T12:47:55.093Z,45
2019-03-22T12:49:07.280Z,45
2019-03-22T12:50:19.472Z,45
2019-03-22T12:51:31.677Z,45
2019-03-22T12:52:43.864Z,45
2019-03-22T12:53:56.070Z,45
2019-03-22T12:55:08.026Z,45
2019-03-22T12:56:20.455Z,45
2019-03-22T12:57:32.655Z,45
2019-03-22T12:58:44.848Z,44.9
2019-03-22T12:59:57.042Z,44.9
2019-03-22T13:01:09.256Z,44.9
2019-03-22T13:02:21.043Z,44.9
2019-03-22T13:03:33.625Z,44.9
2019-03-22T13:04:45.833Z,44.9
2019-03-22T13:05:58.019Z,44.9
2019-03-22T13:07:10.214Z,44.9
2019-03-22T13:08:22.417Z,44.9
2019-03-22T13:09:34.059Z,44.9
2019-03-22T13:10:46.801Z,44.9
2019-03-22T13:11:58.994Z,44.9
2019-03-22T13:13:11.188Z,44.9
2019-03-22T13:14:23.387Z,44.9
2019-03-22T13:15:35.579Z,44.9
2019-03-22T13:16:47.774Z,44.9
2019-03-22T13:17:59.966Z,45
2019-03-22T13:19:12.167Z,45
2019-03-22T13:20:24.359Z,45
2019-03-22T13:21:36.560Z,45
2019-03-22T13:22:49.252Z,45
2019-03-22T13:24:00.943Z,45
2019-03-22T13:25:13.143Z,45
2019-03-22T13:26:25.343Z,45
2019-03-22T13:27:37.536Z,45
2019-03-22T13:28:49.738Z,45
2019-03-22T13:30:01.927Z,45
2019-03-22T13:31:14.122Z,45
2019-03-22T13:32:26.321Z,45
2019-03-22T13:33:38.509Z,45
2019-03-22T13:34:50.701Z,45
2019-03-22T13:36:02.895Z,44.9
2019-03-22T13:37:15.097Z,44.9
2019-03-22T13:38:27.288Z,44.9
2019-03-22T13:39:39.049Z,44.9
2019-03-22T13:40:51.068Z,44.9
2019-03-22T13:42:03.093Z,44.9
2019-03-22T13:43:16.072Z,44.9
2019-03-22T13:44:28.268Z,44.9
2019-03-22T13:45:40.463Z,44.9
2019-03-22T13:46:52.660Z,44.9
2019-03-22T13:48:04.855Z,44.9
2019-03-22T13:49:17.059Z,44.9
2019-03-22T13:50:29.248Z,44.9
2019-03-22T13:51:41.448Z,44.8
2019-03-22T13:52:53.634Z,44.8
2019-03-22T13:54:05.830Z,44.8
2019-03-22T13:56:30.225Z,44.8
2019-03-22T13:57:42.416Z,44.8
2019-03-22T13:58:54.617Z,44.8
2019-03-22T14:00:06.811Z,44.8
2019-03-22T14:01:19.010Z,44.8
2019-03-22T14:02:31.211Z,44.8
2019-03-22T14:03:43.454Z,44.8
2019-03-22T14:04:55.597Z,44.8
2019-03-22T14:06:07.786Z,44.8
2019-03-22T14:08:32.188Z,44.6
2019-03-22T14:09:44.384Z,44.7
2019-03-22T14:10:56.573Z,44.6
2019-03-22T14:12:08.763Z,44.6
2019-03-22T14:13:20.964Z,44.5
2019-03-22T14:14:33.171Z,44.5
2019-03-22T14:15:45.353Z,44.4
2019-03-22T14:16:57.581Z,44
2019-03-22T14:18:09.752Z,43.7
2019-03-22T14:19:21.943Z,43.2
2019-03-22T14:20:34.134Z,42.3
2019-03-22T14:21:46.338Z,41.2
2019-03-22T14:22:58.532Z,40.5
2019-03-22T14:24:10.071Z,39.3
2019-03-22T14:25:22.920Z,39.7
2019-03-22T14:26:35.107Z,39.9
2019-03-22T14:27:47.302Z,40.2
2019-03-22T14:28:59.506Z,40.3
2019-03-22T14:30:11.006Z,40.5
2019-03-22T14:31:23.897Z,40.6
2019-03-22T14:32:36.094Z,40.6
2019-03-22T14:33:48.283Z,40.7
2019-03-22T14:36:12.671Z,41
2019-03-22T14:37:24.869Z,41.2
2019-03-22T14:38:37.071Z,41.2
2019-03-22T14:39:49.266Z,41.2
2019-03-22T14:41:01.458Z,40.9
2019-03-22T14:42:13.657Z,40.1
2019-03-22T14:43:25.084Z,39.2
2019-03-22T14:44:38.034Z,38
2019-03-22T14:45:50.231Z,37.6
2019-03-22T14:47:02.453Z,36.9
2019-03-22T14:48:14.623Z,36.8
2019-03-22T14:49:26.818Z,37.7
2019-03-22T14:50:39.042Z,38.4
2019-03-22T14:51:51.210Z,38.7
2019-03-22T14:53:03.421Z,39.1
2019-03-22T14:54:15.060Z,39.5
2019-03-22T14:55:27.788Z,39.8
2019-03-22T14:56:39.995Z,39.8
2019-03-22T14:57:52.189Z,40
2019-03-22T14:59:04.380Z,40
2019-03-22T15:00:16.578Z,40.2
2019-03-22T15:01:28.764Z,40.4
2019-03-22T15:02:40.968Z,40.5
2019-03-22T15:03:53.163Z,40.5
2019-03-22T15:05:05.356Z,40.6
2019-03-22T15:06:17.553Z,40.6
2019-03-22T15:07:29.758Z,40.7
2019-03-22T15:08:41.097Z,40.8
2019-03-22T15:09:54.145Z,40.9
2019-03-22T15:11:06.328Z,40.9
2019-03-22T15:12:18.531Z,41
2019-03-22T15:13:30.072Z,41.1
2019-03-22T15:14:42.091Z,41.1
2019-03-22T15:15:55.121Z,41.2
2019-03-22T15:17:07.334Z,41.2
2019-03-22T15:18:19.505Z,41.2
2019-03-22T15:19:31.697Z,41.2
2019-03-22T15:20:43.902Z,41.2
2019-03-22T15:21:56.094Z,41.3
2019-03-22T15:23:08.284Z,41.2
2019-03-22T15:24:20.479Z,41.2
2019-03-22T15:25:32.678Z,41.1
2019-03-22T15:26:44.872Z,41.1
2019-03-22T15:27:57.076Z,41.2
2019-03-22T15:29:09.271Z,41.1
2019-03-22T15:30:21.461Z,41.1
2019-03-22T15:31:33.663Z,41.1
2019-03-22T15:32:45.855Z,41.1
2019-03-22T15:33:58.004Z,41.1
2019-03-22T15:35:10.241Z,41.1
2019-03-22T15:36:22.439Z,41
2019-03-22T15:37:34.627Z,41
2019-03-22T15:38:46.830Z,41.1
2019-03-22T15:39:59.002Z,41
2019-03-22T15:41:11.222Z,41
2019-03-22T15:42:23.423Z,40.9
2019-03-22T15:43:35.611Z,40.9
2019-03-22T15:44:47.804Z,40.8
2019-03-22T15:45:59.994Z,40.8
2019-03-22T15:47:12.185Z,40.7
2019-03-22T15:48:24.380Z,40.6
2019-03-22T15:49:36.599Z,40.6
2019-03-22T15:50:48.805Z,40.5
2019-03-22T15:52:00.959Z,40.5
2019-03-22T15:53:13.015Z,40.5
2019-03-22T15:54:25.357Z,40.5
2019-03-22T15:56:49.730Z,40.5
2019-03-22T15:58:01.926Z,40.5
2019-03-22T15:59:14.121Z,40.5
2019-03-22T16:00:26.325Z,40.5
2019-03-22T16:01:38.050Z,40.5
2019-03-22T16:02:50.697Z,40.5
2019-03-22T16:04:02.894Z,40.5
2019-03-22T16:05:15.088Z,40.5
2019-03-22T16:06:27.286Z,40.3
2019-03-22T16:07:39.476Z,40.3
2019-03-22T16:08:51.069Z,40.3
2019-03-22T16:10:03.943Z,40.4
2019-03-22T16:11:16.055Z,40.6
2019-03-22T16:12:28.254Z,40.9
2019-03-22T16:13:40.446Z,41.1
2019-03-22T16:14:52.638Z,41.1
2019-03-22T16:16:04.827Z,41.2
2019-03-22T16:17:17.029Z,41.2
2019-03-22T16:18:29.220Z,41.3
2019-03-22T16:20:53.607Z,41.4
2019-03-22T16:22:05.080Z,41.6
2019-03-22T16:23:17.989Z,41.6
2019-03-22T16:24:30.195Z,41.7
2019-03-22T16:25:42.383Z,41.7
2019-03-22T16:26:54.578Z,41.8
2019-03-22T16:28:06.779Z,41.8
2019-03-22T16:29:18.960Z,41.9
2019-03-22T16:30:31.155Z,41.9
2019-03-22T16:31:43.345Z,42
2019-03-22T16:32:55.562Z,42